sensor_id;sensor_type;location;lat;lon;timestamp;pressure;altitude;pressure_sealevel;temperature;humidity
23321;BME280;33376;51.306;4.752;2024-02-04T00:00:02;102784.34;;;14.96;100.00
23321;BME280;33376;51.306;4.752;2024-02-04T00:02:28;102790.94;;;14.88;100.00
23321;BME280;33376;51.306;4.752;2024-02-04T00:04:53;102741.53;;;15.39;100.00
23321;BME280;33376;51.306;4.752;2024-02-04T00:07:19;102742.91;;;15.48;100.00
23321;BME280;33376;51.306;4.752;2024-02-04T00:09:44;102735.41;;;15.36;100.00
23321;BME280;33376;51.306;4.752;2024-02-04T00:12:10;102714.81;;;15.76;100.00
23321;BME280;33376;51.306;4.752;2024-02-04T00:14:35;102761.81;;;15.23;100.00
23321;BME280;33376;51.306;4.752;2024-02-04T00:17:00;102714.34;;;15.68;100.00
23321;BME280;33376;51.306;4.752;2024-02-04T00:19:26;102713.81;;;15.97;100.00
23321;BME280;33376;51.306;4.752;2024-02-04T00:21:52;102722.84;;;15.58;100.00
23321;BME280;33376;51.306;4.752;2024-02-04T00:24:17;102760.25;;;15.18;100.00
23321;BME280;33376;51.306;4.752;2024-02-04T00:26:44;102724.38;;;15.82;100.00
23321;BME280;33376;51.306;4.752;2024-02-04T00:29:09;102779.03;;;14.96;100.00
23321;BME280;33376;51.306;4.752;2024-02-04T00:31:34;102768.59;;;15.10;100.00
23321;BME280;33376;51.306;4.752;2024-02-04T00:34:00;102733.88;;;15.50;100.00
23321;BME280;33376;51.306;4.752;2024-02-04T00:36:26;102765.69;;;15.56;100.00
23321;BME280;33376;51.306;4.752;2024-02-04T00:38:51;102729.53;;;15.48;100.00
23321;BME280;33376;51.306;4.752;2024-02-04T00:41:16;102738.81;;;15.59;100.00
23321;BME280;33376;51.306;4.752;2024-02-04T00:43:42;102738.94;;;15.36;100.00
23321;BME280;33376;51.306;4.752;2024-02-04T00:46:07;102767.63;;;15.33;100.00
23321;BME280;33376;51.306;4.752;2024-02-04T00:48:35;102752.09;;;15.81;100.00
23321;BME280;33376;51.306;4.752;2024-02-04T00:51:00;102750.03;;;15.67;100.00
23321;BME280;33376;51.306;4.752;2024-02-04T00:53:26;102735.09;;;15.82;100.00
23321;BME280;33376;51.306;4.752;2024-02-04T00:55:53;102744.94;;;15.43;100.00
23321;BME280;33376;51.306;4.752;2024-02-04T00:58:18;102752.00;;;15.44;100.00
23321;BME280;33376;51.306;4.752;2024-02-04T01:00:43;102754.94;;;15.38;100.00
23321;BME280;33376;51.306;4.752;2024-02-04T01:03:08;102745.72;;;15.45;100.00
23321;BME280;33376;51.306;4.752;2024-02-04T01:05:34;102765.69;;;15.36;100.00
23321;BME280;33376;51.306;4.752;2024-02-04T01:07:59;102740.66;;;15.57;100.00
23321;BME280;33376;51.306;4.752;2024-02-04T01:10:25;102752.97;;;15.21;100.00
23321;BME280;33376;51.306;4.752;2024-02-04T01:12:51;102735.84;;;15.65;100.00
23321;BME280;33376;51.306;4.752;2024-02-04T01:15:16;102740.56;;;15.60;100.00
23321;BME280;33376;51.306;4.752;2024-02-04T01:17:41;102708.50;;;15.59;100.00
23321;BME280;33376;51.306;4.752;2024-02-04T01:20:07;102683.63;;;15.95;100.00
23321;BME280;33376;51.306;4.752;2024-02-04T01:22:32;102665.38;;;15.85;100.00
23321;BME280;33376;51.306;4.752;2024-02-04T01:24:58;102671.53;;;15.87;100.00
23321;BME280;33376;51.306;4.752;2024-02-04T01:27:23;102647.84;;;16.15;100.00
23321;BME280;33376;51.306;4.752;2024-02-04T01:29:48;102677.81;;;15.49;100.00
23321;BME280;33376;51.306;4.752;2024-02-04T01:32:13;102722.19;;;15.33;100.00
23321;BME280;33376;51.306;4.752;2024-02-04T01:34:39;102713.63;;;15.45;100.00
23321;BME280;33376;51.306;4.752;2024-02-04T01:37:05;102717.97;;;15.47;100.00
23321;BME280;33376;51.306;4.752;2024-02-04T01:39:30;102709.91;;;15.49;100.00
23321;BME280;33376;51.306;4.752;2024-02-04T01:41:56;102725.50;;;15.58;100.00
23321;BME280;33376;51.306;4.752;2024-02-04T01:44:21;102744.28;;;15.16;100.00
23321;BME280;33376;51.306;4.752;2024-02-04T01:46:47;102766.84;;;14.89;100.00
23321;BME280;33376;51.306;4.752;2024-02-04T01:49:12;102751.94;;;15.45;100.00
23321;BME280;33376;51.306;4.752;2024-02-04T01:51:38;102699.44;;;16.00;100.00
23321;BME280;33376;51.306;4.752;2024-02-04T01:54:03;102730.38;;;15.87;100.00
23321;BME280;33376;51.306;4.752;2024-02-04T01:56:30;102699.94;;;15.89;100.00
23321;BME280;33376;51.306;4.752;2024-02-04T01:58:55;102720.13;;;15.78;100.00
23321;BME280;33376;51.306;4.752;2024-02-04T02:01:21;102711.63;;;15.50;100.00
23321;BME280;33376;51.306;4.752;2024-02-04T02:03:47;102707.75;;;15.57;100.00
23321;BME280;33376;51.306;4.752;2024-02-04T02:06:15;102706.78;;;15.58;100.00
23321;BME280;33376;51.306;4.752;2024-02-04T02:08:40;102679.69;;;16.02;100.00
23321;BME280;33376;51.306;4.752;2024-02-04T02:11:08;102658.97;;;15.89;100.00
23321;BME280;33376;51.306;4.752;2024-02-04T02:13:36;102716.81;;;15.53;100.00
23321;BME280;33376;51.306;4.752;2024-02-04T02:16:04;102706.41;;;15.47;100.00
23321;BME280;33376;51.306;4.752;2024-02-04T02:23:22;102682.97;;;15.90;100.00
23321;BME280;33376;51.306;4.752;2024-02-04T02:25:54;102667.56;;;15.95;100.00
23321;BME280;33376;51.306;4.752;2024-02-04T02:28:20;102693.16;;;15.82;100.00
23321;BME280;33376;51.306;4.752;2024-02-04T02:30:46;102671.69;;;15.84;100.00
23321;BME280;33376;51.306;4.752;2024-02-04T02:33:11;102676.44;;;15.77;100.00
23321;BME280;33376;51.306;4.752;2024-02-04T02:35:36;102679.25;;;15.56;100.00
23321;BME280;33376;51.306;4.752;2024-02-04T02:38:13;102689.16;;;15.72;100.00
23321;BME280;33376;51.306;4.752;2024-02-04T02:40:47;102715.34;;;15.26;100.00
23321;BME280;33376;51.306;4.752;2024-02-04T02:43:14;102709.69;;;15.33;100.00
23321;BME280;33376;51.306;4.752;2024-02-04T02:45:41;102690.28;;;15.68;100.00
23321;BME280;33376;51.306;4.752;2024-02-04T02:48:07;102664.38;;;15.69;100.00
23321;BME280;33376;51.306;4.752;2024-02-04T02:50:34;102699.84;;;14.94;100.00
23321;BME280;33376;51.306;4.752;2024-02-04T02:52:59;102717.88;;;15.29;100.00
23321;BME280;33376;51.306;4.752;2024-02-04T02:55:24;102730.06;;;15.36;100.00
23321;BME280;33376;51.306;4.752;2024-02-04T02:57:49;102684.09;;;15.85;100.00
23321;BME280;33376;51.306;4.752;2024-02-04T03:00:15;102694.28;;;15.58;100.00
23321;BME280;33376;51.306;4.752;2024-02-04T03:02:40;102654.81;;;16.00;100.00
23321;BME280;33376;51.306;4.752;2024-02-04T03:05:05;102674.34;;;15.84;100.00
23321;BME280;33376;51.306;4.752;2024-02-04T03:07:31;102661.34;;;15.95;100.00
23321;BME280;33376;51.306;4.752;2024-02-04T03:09:56;102706.59;;;15.22;100.00
23321;BME280;33376;51.306;4.752;2024-02-04T03:12:21;102668.28;;;15.62;100.00
23321;BME280;33376;51.306;4.752;2024-02-04T03:14:46;102666.03;;;15.90;100.00
23321;BME280;33376;51.306;4.752;2024-02-04T03:17:12;102664.44;;;15.67;100.00
23321;BME280;33376;51.306;4.752;2024-02-04T03:19:38;102624.13;;;16.43;100.00
23321;BME280;33376;51.306;4.752;2024-02-04T03:22:03;102664.38;;;15.50;100.00
23321;BME280;33376;51.306;4.752;2024-02-04T03:24:29;102636.63;;;16.07;100.00
23321;BME280;33376;51.306;4.752;2024-02-04T03:26:54;102640.06;;;15.92;100.00
23321;BME280;33376;51.306;4.752;2024-02-04T03:29:19;102648.94;;;15.92;100.00
23321;BME280;33376;51.306;4.752;2024-02-04T03:31:45;102678.03;;;15.63;100.00
23321;BME280;33376;51.306;4.752;2024-02-04T03:34:10;102629.53;;;15.89;100.00
23321;BME280;33376;51.306;4.752;2024-02-04T03:36:36;102639.19;;;15.91;100.00
23321;BME280;33376;51.306;4.752;2024-02-04T03:39:02;102600.19;;;16.40;100.00
23321;BME280;33376;51.306;4.752;2024-02-04T03:41:28;102628.53;;;15.73;100.00
23321;BME280;33376;51.306;4.752;2024-02-04T03:43:53;102640.13;;;16.09;100.00
23321;BME280;33376;51.306;4.752;2024-02-04T03:46:20;102609.22;;;16.38;100.00
23321;BME280;33376;51.306;4.752;2024-02-04T03:48:45;102648.03;;;15.75;100.00
23321;BME280;33376;51.306;4.752;2024-02-04T03:51:14;102643.47;;;15.77;100.00
23321;BME280;33376;51.306;4.752;2024-02-04T03:53:40;102647.09;;;15.76;100.00
23321;BME280;33376;51.306;4.752;2024-02-04T03:56:05;102668.34;;;15.60;100.00
23321;BME280;33376;51.306;4.752;2024-02-04T03:58:32;102670.28;;;15.37;100.00
23321;BME280;33376;51.306;4.752;2024-02-04T04:00:57;102666.31;;;15.47;100.00
23321;BME280;33376;51.306;4.752;2024-02-04T04:03:23;102649.75;;;15.57;100.00
23321;BME280;33376;51.306;4.752;2024-02-04T04:05:48;102685.38;;;15.39;100.00
23321;BME280;33376;51.306;4.752;2024-02-04T04:08:14;102678.06;;;15.23;100.00
23321;BME280;33376;51.306;4.752;2024-02-04T04:10:39;102703.06;;;15.02;100.00
23321;BME280;33376;51.306;4.752;2024-02-04T04:13:04;102639.91;;;15.76;100.00
23321;BME280;33376;51.306;4.752;2024-02-04T04:15:30;102634.97;;;15.87;100.00
23321;BME280;33376;51.306;4.752;2024-02-04T04:17:55;102664.06;;;15.56;100.00
23321;BME280;33376;51.306;4.752;2024-02-04T04:20:20;102667.63;;;15.57;100.00
23321;BME280;33376;51.306;4.752;2024-02-04T04:22:45;102641.94;;;15.90;100.00
23321;BME280;33376;51.306;4.752;2024-02-04T04:25:11;102639.44;;;15.87;100.00
23321;BME280;33376;51.306;4.752;2024-02-04T04:27:36;102672.16;;;15.55;100.00
23321;BME280;33376;51.306;4.752;2024-02-04T04:30:01;102645.50;;;15.72;100.00
23321;BME280;33376;51.306;4.752;2024-02-04T04:32:27;102649.34;;;15.66;100.00
23321;BME280;33376;51.306;4.752;2024-02-04T04:34:53;102645.94;;;15.44;100.00
23321;BME280;33376;51.306;4.752;2024-02-04T04:37:21;102642.53;;;15.59;100.00
23321;BME280;33376;51.306;4.752;2024-02-04T04:39:47;102633.09;;;15.52;100.00
23321;BME280;33376;51.306;4.752;2024-02-04T04:42:15;102630.50;;;15.51;100.00
23321;BME280;33376;51.306;4.752;2024-02-04T04:44:42;102638.50;;;15.69;100.00
23321;BME280;33376;51.306;4.752;2024-02-04T04:47:08;102612.19;;;15.79;100.00
23321;BME280;33376;51.306;4.752;2024-02-04T04:49:34;102583.91;;;16.09;100.00
23321;BME280;33376;51.306;4.752;2024-02-04T04:51:59;102558.59;;;16.16;100.00
23321;BME280;33376;51.306;4.752;2024-02-04T04:54:24;102615.22;;;15.53;100.00
23321;BME280;33376;51.306;4.752;2024-02-04T04:56:51;102589.09;;;15.76;100.00
23321;BME280;33376;51.306;4.752;2024-02-04T04:59:17;102594.09;;;15.84;100.00
23321;BME280;33376;51.306;4.752;2024-02-04T05:01:45;102560.63;;;16.11;100.00
23321;BME280;33376;51.306;4.752;2024-02-04T05:04:12;102605.84;;;15.44;100.00
23321;BME280;33376;51.306;4.752;2024-02-04T05:06:37;102570.03;;;15.84;100.00
23321;BME280;33376;51.306;4.752;2024-02-04T05:09:03;102560.78;;;16.42;100.00
23321;BME280;33376;51.306;4.752;2024-02-04T05:11:28;102580.34;;;15.91;100.00
23321;BME280;33376;51.306;4.752;2024-02-04T05:13:53;102608.72;;;15.58;100.00
23321;BME280;33376;51.306;4.752;2024-02-04T05:16:19;102595.25;;;15.78;100.00
23321;BME280;33376;51.306;4.752;2024-02-04T05:18:44;102600.25;;;15.86;100.00
23321;BME280;33376;51.306;4.752;2024-02-04T05:21:10;102600.81;;;15.74;100.00
23321;BME280;33376;51.306;4.752;2024-02-04T05:23:36;102565.25;;;15.72;100.00
23321;BME280;33376;51.306;4.752;2024-02-04T05:26:04;102592.31;;;15.47;100.00
23321;BME280;33376;51.306;4.752;2024-02-04T05:28:30;102591.84;;;15.75;100.00
23321;BME280;33376;51.306;4.752;2024-02-04T05:30:55;102572.25;;;15.93;100.00
23321;BME280;33376;51.306;4.752;2024-02-04T05:33:20;102593.19;;;16.02;100.00
23321;BME280;33376;51.306;4.752;2024-02-04T05:35:46;102634.31;;;15.25;100.00
23321;BME280;33376;51.306;4.752;2024-02-04T05:38:11;102629.53;;;15.32;100.00
23321;BME280;33376;51.306;4.752;2024-02-04T05:40:36;102651.22;;;15.26;100.00
23321;BME280;33376;51.306;4.752;2024-02-04T05:43:02;102603.00;;;15.66;100.00
23321;BME280;33376;51.306;4.752;2024-02-04T05:45:32;102582.59;;;15.82;100.00
23321;BME280;33376;51.306;4.752;2024-02-04T05:47:57;102649.38;;;15.08;100.00
23321;BME280;33376;51.306;4.752;2024-02-04T05:50:22;102621.34;;;15.36;100.00
23321;BME280;33376;51.306;4.752;2024-02-04T05:52:48;102597.59;;;15.67;100.00
23321;BME280;33376;51.306;4.752;2024-02-04T05:55:14;102623.13;;;15.36;100.00
23321;BME280;33376;51.306;4.752;2024-02-04T05:57:39;102575.44;;;15.82;100.00
23321;BME280;33376;51.306;4.752;2024-02-04T06:00:04;102579.84;;;15.83;100.00
23321;BME280;33376;51.306;4.752;2024-02-04T06:02:30;102598.97;;;15.39;100.00
23321;BME280;33376;51.306;4.752;2024-02-04T06:04:56;102602.66;;;15.55;100.00
23321;BME280;33376;51.306;4.752;2024-02-04T06:07:21;102588.97;;;15.61;100.00
23321;BME280;33376;51.306;4.752;2024-02-04T06:09:46;102575.97;;;15.35;100.00
23321;BME280;33376;51.306;4.752;2024-02-04T06:12:11;102588.91;;;15.62;100.00
23321;BME280;33376;51.306;4.752;2024-02-04T06:14:37;102590.66;;;15.45;100.00
23321;BME280;33376;51.306;4.752;2024-02-04T06:17:05;102600.88;;;15.35;100.00
23321;BME280;33376;51.306;4.752;2024-02-04T06:19:30;102580.16;;;15.59;100.00
23321;BME280;33376;51.306;4.752;2024-02-04T06:21:55;102564.75;;;15.82;100.00
23321;BME280;33376;51.306;4.752;2024-02-04T06:24:20;102597.66;;;15.09;100.00
23321;BME280;33376;51.306;4.752;2024-02-04T06:26:46;102630.16;;;15.00;100.00
23321;BME280;33376;51.306;4.752;2024-02-04T06:29:11;102607.34;;;15.50;100.00
23321;BME280;33376;51.306;4.752;2024-02-04T06:31:36;102558.50;;;16.18;100.00
23321;BME280;33376;51.306;4.752;2024-02-04T06:34:01;102622.13;;;15.38;100.00
23321;BME280;33376;51.306;4.752;2024-02-04T06:36:27;102596.88;;;15.45;100.00
23321;BME280;33376;51.306;4.752;2024-02-04T06:38:52;102625.84;;;15.16;100.00
23321;BME280;33376;51.306;4.752;2024-02-04T06:41:17;102612.53;;;15.14;100.00
23321;BME280;33376;51.306;4.752;2024-02-04T06:43:42;102604.16;;;15.42;100.00
23321;BME280;33376;51.306;4.752;2024-02-04T06:46:08;102614.44;;;15.12;100.00
23321;BME280;33376;51.306;4.752;2024-02-04T06:48:33;102587.69;;;15.69;100.00
23321;BME280;33376;51.306;4.752;2024-02-04T06:50:58;102599.38;;;15.67;100.00
23321;BME280;33376;51.306;4.752;2024-02-04T06:53:23;102596.19;;;15.02;100.00
23321;BME280;33376;51.306;4.752;2024-02-04T06:55:49;102568.91;;;15.88;100.00
23321;BME280;33376;51.306;4.752;2024-02-04T06:58:14;102578.50;;;15.56;100.00
23321;BME280;33376;51.306;4.752;2024-02-04T07:00:39;102585.31;;;15.63;100.00
23321;BME280;33376;51.306;4.752;2024-02-04T07:03:04;102583.84;;;15.38;100.00
23321;BME280;33376;51.306;4.752;2024-02-04T07:05:30;102611.00;;;14.90;100.00
23321;BME280;33376;51.306;4.752;2024-02-04T07:07:57;102617.19;;;14.91;100.00
23321;BME280;33376;51.306;4.752;2024-02-04T07:10:22;102616.91;;;15.17;100.00
23321;BME280;33376;51.306;4.752;2024-02-04T07:12:47;102610.97;;;15.29;100.00
23321;BME280;33376;51.306;4.752;2024-02-04T07:15:13;102609.66;;;15.39;100.00
23321;BME280;33376;51.306;4.752;2024-02-04T07:17:38;102625.66;;;15.00;100.00
23321;BME280;33376;51.306;4.752;2024-02-04T07:20:03;102584.78;;;15.74;100.00
23321;BME280;33376;51.306;4.752;2024-02-04T07:22:30;102585.16;;;15.66;100.00
23321;BME280;33376;51.306;4.752;2024-02-04T07:24:55;102623.88;;;15.01;100.00
23321;BME280;33376;51.306;4.752;2024-02-04T07:27:20;102622.66;;;15.08;100.00
23321;BME280;33376;51.306;4.752;2024-02-04T07:29:45;102608.81;;;15.18;100.00
23321;BME280;33376;51.306;4.752;2024-02-04T07:32:12;102592.91;;;15.34;100.00
23321;BME280;33376;51.306;4.752;2024-02-04T07:34:37;102581.88;;;15.23;100.00
23321;BME280;33376;51.306;4.752;2024-02-04T07:37:02;102648.63;;;14.84;100.00
23321;BME280;33376;51.306;4.752;2024-02-04T07:39:28;102577.75;;;15.90;100.00
23321;BME280;33376;51.306;4.752;2024-02-04T07:41:55;102569.75;;;15.16;100.00
23321;BME280;33376;51.306;4.752;2024-02-04T07:44:21;102607.97;;;14.98;100.00
23321;BME280;33376;51.306;4.752;2024-02-04T07:46:49;102578.88;;;15.49;100.00
23321;BME280;33376;51.306;4.752;2024-02-04T07:49:14;102607.09;;;15.36;100.00
23321;BME280;33376;51.306;4.752;2024-02-04T07:51:39;102611.91;;;15.09;100.00
23321;BME280;33376;51.306;4.752;2024-02-04T07:54:05;102634.00;;;15.13;100.00
23321;BME280;33376;51.306;4.752;2024-02-04T07:56:30;102583.84;;;15.38;100.00
23321;BME280;33376;51.306;4.752;2024-02-04T07:58:55;102581.69;;;15.46;100.00
23321;BME280;33376;51.306;4.752;2024-02-04T08:01:21;102618.66;;;14.98;100.00
23321;BME280;33376;51.306;4.752;2024-02-04T08:03:48;102588.78;;;15.47;100.00
23321;BME280;33376;51.306;4.752;2024-02-04T08:06:14;102564.06;;;15.60;100.00
23321;BME280;33376;51.306;4.752;2024-02-04T08:08:39;102585.16;;;15.48;100.00
23321;BME280;33376;51.306;4.752;2024-02-04T08:11:06;102576.06;;;15.13;100.00
23321;BME280;33376;51.306;4.752;2024-02-04T08:13:31;102564.06;;;15.42;100.00
23321;BME280;33376;51.306;4.752;2024-02-04T08:15:56;102544.63;;;15.38;100.00
23321;BME280;33376;51.306;4.752;2024-02-04T08:18:21;102547.28;;;15.57;100.00
23321;BME280;33376;51.306;4.752;2024-02-04T08:20:47;102556.09;;;15.59;100.00
23321;BME280;33376;51.306;4.752;2024-02-04T08:23:12;102594.50;;;15.19;100.00
23321;BME280;33376;51.306;4.752;2024-02-04T08:25:37;102572.28;;;15.56;100.00
23321;BME280;33376;51.306;4.752;2024-02-04T08:28:02;102559.66;;;15.41;100.00
23321;BME280;33376;51.306;4.752;2024-02-04T08:30:28;102558.75;;;15.59;100.00
23321;BME280;33376;51.306;4.752;2024-02-04T08:32:53;102558.72;;;15.42;100.00
23321;BME280;33376;51.306;4.752;2024-02-04T08:35:19;102556.97;;;15.78;100.00
23321;BME280;33376;51.306;4.752;2024-02-04T08:37:44;102560.50;;;15.60;100.00
23321;BME280;33376;51.306;4.752;2024-02-04T08:40:09;102564.88;;;15.44;100.00
23321;BME280;33376;51.306;4.752;2024-02-04T08:42:35;102592.56;;;15.23;100.00
23321;BME280;33376;51.306;4.752;2024-02-04T08:45:00;102543.00;;;15.71;100.00
23321;BME280;33376;51.306;4.752;2024-02-04T08:47:26;102575.59;;;15.24;100.00
23321;BME280;33376;51.306;4.752;2024-02-04T08:49:51;102598.13;;;15.18;100.00
23321;BME280;33376;51.306;4.752;2024-02-04T08:52:16;102546.75;;;15.86;100.00
23321;BME280;33376;51.306;4.752;2024-02-04T08:54:42;102577.44;;;15.60;100.00
23321;BME280;33376;51.306;4.752;2024-02-04T08:57:09;102586.84;;;15.30;100.00
23321;BME280;33376;51.306;4.752;2024-02-04T08:59:34;102594.13;;;15.47;100.00
23321;BME280;33376;51.306;4.752;2024-02-04T09:02:00;102561.94;;;15.67;100.00
23321;BME280;33376;51.306;4.752;2024-02-04T09:04:25;102596.50;;;15.53;100.00
23321;BME280;33376;51.306;4.752;2024-02-04T09:06:50;102592.31;;;15.66;100.00
23321;BME280;33376;51.306;4.752;2024-02-04T09:09:15;102542.44;;;16.18;100.00
23321;BME280;33376;51.306;4.752;2024-02-04T09:11:41;102558.19;;;15.71;100.00
23321;BME280;33376;51.306;4.752;2024-02-04T09:14:06;102538.81;;;16.19;100.00
23321;BME280;33376;51.306;4.752;2024-02-04T09:16:32;102541.72;;;15.97;100.00
23321;BME280;33376;51.306;4.752;2024-02-04T09:18:58;102530.88;;;16.17;100.00
23321;BME280;33376;51.306;4.752;2024-02-04T09:21:23;102561.06;;;16.02;100.00
23321;BME280;33376;51.306;4.752;2024-02-04T09:23:48;102550.75;;;16.11;100.00
23321;BME280;33376;51.306;4.752;2024-02-04T09:26:13;102540.44;;;15.87;100.00
23321;BME280;33376;51.306;4.752;2024-02-04T09:28:39;102530.63;;;15.87;100.00
23321;BME280;33376;51.306;4.752;2024-02-04T09:31:07;102533.38;;;15.86;100.00
23321;BME280;33376;51.306;4.752;2024-02-04T09:33:33;102531.28;;;15.74;100.00
23321;BME280;33376;51.306;4.752;2024-02-04T09:35:58;102542.78;;;15.76;100.00
23321;BME280;33376;51.306;4.752;2024-02-04T09:38:23;102515.06;;;15.95;100.00
23321;BME280;33376;51.306;4.752;2024-02-04T09:40:48;102548.44;;;15.70;100.00
23321;BME280;33376;51.306;4.752;2024-02-04T09:43:14;102566.41;;;15.29;100.00
23321;BME280;33376;51.306;4.752;2024-02-04T09:45:40;102539.06;;;15.61;100.00
23321;BME280;33376;51.306;4.752;2024-02-04T09:48:06;102541.78;;;15.60;100.00
23321;BME280;33376;51.306;4.752;2024-02-04T09:50:31;102503.06;;;15.85;100.00
23321;BME280;33376;51.306;4.752;2024-02-04T09:52:58;102518.91;;;16.24;100.00
23321;BME280;33376;51.306;4.752;2024-02-04T09:55:25;102504.41;;;15.94;100.00
23321;BME280;33376;51.306;4.752;2024-02-04T09:57:51;102531.13;;;15.41;100.00
23321;BME280;33376;51.306;4.752;2024-02-04T10:00:18;102569.41;;;15.60;100.00
23321;BME280;33376;51.306;4.752;2024-02-04T10:02:43;102535.22;;;15.48;100.00
23321;BME280;33376;51.306;4.752;2024-02-04T10:05:09;102544.75;;;15.72;100.00
23321;BME280;33376;51.306;4.752;2024-02-04T10:07:35;102564.75;;;15.82;100.00
23321;BME280;33376;51.306;4.752;2024-02-04T10:10:01;102523.03;;;15.78;100.00
23321;BME280;33376;51.306;4.752;2024-02-04T10:12:26;102540.34;;;15.53;100.00
23321;BME280;33376;51.306;4.752;2024-02-04T10:14:51;102495.91;;;16.03;100.00
23321;BME280;33376;51.306;4.752;2024-02-04T10:17:16;102510.13;;;15.69;100.00
23321;BME280;33376;51.306;4.752;2024-02-04T10:19:42;102491.38;;;15.52;100.00
23321;BME280;33376;51.306;4.752;2024-02-04T10:22:07;102511.97;;;16.20;100.00
23321;BME280;33376;51.306;4.752;2024-02-04T10:24:32;102529.91;;;15.65;100.00
23321;BME280;33376;51.306;4.752;2024-02-04T10:26:58;102512.13;;;16.17;100.00
23321;BME280;33376;51.306;4.752;2024-02-04T10:29:24;102525.91;;;15.38;100.00
23321;BME280;33376;51.306;4.752;2024-02-04T10:31:53;102507.81;;;16.15;100.00
23321;BME280;33376;51.306;4.752;2024-02-04T10:34:18;102541.50;;;15.66;100.00
23321;BME280;33376;51.306;4.752;2024-02-04T10:36:43;102504.34;;;15.95;100.00
23321;BME280;33376;51.306;4.752;2024-02-04T10:39:09;102501.25;;;16.20;100.00
23321;BME280;33376;51.306;4.752;2024-02-04T10:41:35;102506.19;;;15.76;100.00
23321;BME280;33376;51.306;4.752;2024-02-04T10:44:04;102489.16;;;16.13;100.00
23321;BME280;33376;51.306;4.752;2024-02-04T10:46:31;102484.31;;;16.20;100.00
23321;BME280;33376;51.306;4.752;2024-02-04T10:48:59;102521.47;;;15.74;100.00
23321;BME280;33376;51.306;4.752;2024-02-04T10:51:25;102513.94;;;15.99;100.00
23321;BME280;33376;51.306;4.752;2024-02-04T10:53:54;102500.47;;;16.01;100.00
23321;BME280;33376;51.306;4.752;2024-02-04T10:58:52;102497.56;;;16.05;100.00
23321;BME280;33376;51.306;4.752;2024-02-04T11:01:17;102470.06;;;16.36;100.00
23321;BME280;33376;51.306;4.752;2024-02-04T11:03:43;102506.22;;;15.58;100.00
23321;BME280;33376;51.306;4.752;2024-02-04T11:06:10;102519.03;;;15.87;100.00
23321;BME280;33376;51.306;4.752;2024-02-04T11:08:37;102506.88;;;15.63;100.00
23321;BME280;33376;51.306;4.752;2024-02-04T11:11:03;102502.69;;;15.93;100.00
23321;BME280;33376;51.306;4.752;2024-02-04T11:13:28;102464.09;;;16.31;100.00
23321;BME280;33376;51.306;4.752;2024-02-04T11:15:55;102462.69;;;16.07;100.00
23321;BME280;33376;51.306;4.752;2024-02-04T11:18:30;102481.34;;;15.91;100.00
23321;BME280;33376;51.306;4.752;2024-02-04T11:26:10;102407.03;;;17.25;100.00
23321;BME280;33376;51.306;4.752;2024-02-04T11:28:35;102450.06;;;16.76;100.00
23321;BME280;33376;51.306;4.752;2024-02-04T11:31:01;102411.63;;;16.92;100.00
23321;BME280;33376;51.306;4.752;2024-02-04T11:33:26;102374.50;;;17.31;100.00
23321;BME280;33376;51.306;4.752;2024-02-04T11:35:59;102378.66;;;17.37;100.00
23321;BME280;33376;51.306;4.752;2024-02-04T11:38:31;102389.91;;;17.43;100.00
23321;BME280;33376;51.306;4.752;2024-02-04T11:40:57;102356.00;;;17.72;100.00
23321;BME280;33376;51.306;4.752;2024-02-04T11:43:22;102365.78;;;17.12;100.00
23321;BME280;33376;51.306;4.752;2024-02-04T11:45:48;102406.63;;;16.86;100.00
23321;BME280;33376;51.306;4.752;2024-02-04T11:48:13;102380.69;;;17.02;100.00
23321;BME280;33376;51.306;4.752;2024-02-04T11:50:39;102392.00;;;17.07;100.00
23321;BME280;33376;51.306;4.752;2024-02-04T11:53:11;102340.63;;;17.60;100.00
23321;BME280;33376;51.306;4.752;2024-02-04T11:55:38;102342.03;;;17.06;100.00
23321;BME280;33376;51.306;4.752;2024-02-04T11:58:07;102348.06;;;17.25;100.00
23321;BME280;33376;51.306;4.752;2024-02-04T12:00:34;102384.06;;;16.42;100.00
23321;BME280;33376;51.306;4.752;2024-02-04T12:03:00;102355.16;;;17.11;100.00
23321;BME280;33376;51.306;4.752;2024-02-04T12:05:26;102309.72;;;17.39;100.00
23321;BME280;33376;51.306;4.752;2024-02-04T12:07:52;102300.25;;;17.77;100.00
23321;BME280;33376;51.306;4.752;2024-02-04T12:10:17;102310.88;;;17.19;100.00
23321;BME280;33376;51.306;4.752;2024-02-04T12:12:43;102370.31;;;17.12;100.00
23321;BME280;33376;51.306;4.752;2024-02-04T12:15:08;102322.44;;;17.35;100.00
23321;BME280;33376;51.306;4.752;2024-02-04T12:17:34;102339.56;;;17.33;100.00
23321;BME280;33376;51.306;4.752;2024-02-04T12:19:59;102317.72;;;17.55;100.00
23321;BME280;33376;51.306;4.752;2024-02-04T12:22:25;102332.75;;;17.27;100.00
23321;BME280;33376;51.306;4.752;2024-02-04T12:24:50;102312.81;;;17.31;100.00
23321;BME280;33376;51.306;4.752;2024-02-04T12:27:15;102315.63;;;17.45;100.00
23321;BME280;33376;51.306;4.752;2024-02-04T12:29:42;102344.13;;;17.01;100.00
23321;BME280;33376;51.306;4.752;2024-02-04T12:32:07;102328.88;;;17.17;100.00
23321;BME280;33376;51.306;4.752;2024-02-04T12:34:32;102327.44;;;16.81;100.00
23321;BME280;33376;51.306;4.752;2024-02-04T12:36:59;102312.13;;;17.43;100.00
23321;BME280;33376;51.306;4.752;2024-02-04T12:39:28;102304.03;;;17.29;100.00
23321;BME280;33376;51.306;4.752;2024-02-04T12:41:54;102290.34;;;17.64;100.00
23321;BME280;33376;51.306;4.752;2024-02-04T12:44:19;102310.88;;;17.19;100.00